Terminal Aerodrome Forecast
Issued by NWS Grand Forks, ND

Home | Current Version | Previous Version | Text Only | Print | Product List | Glossary Off
Versions: 1 2 3 4 5 6 7 8 9 10 11 12 13 14 15 16 17

000
FTUS43 KFGF 251100
TAFFAR
TAF
KFAR 251134Z 2512/2612 01008KT P6SM SCT070
      TEMPO 2512/2514 BKN070
     FM251800 VRB06KT P6SM BKN050
     FM260100 18015KT P6SM BKN080=

USA.gov is the U.S. government's official web portal to all federal, state and local government web resources and services.